Time;durP1;ratioP1;P1;durP2;ratioP2;P2;SDS_P1;SDS_P2;PMS_P1;PMS_P2;Temp;Humidity;BMP_temperature;BMP_pressure;BME280_temperature;BME280_humidity;BME280_pressure;Samples;Min_cycle;Max_cycle;Signal;HPM_P1;HPM_P2
2022/04/05 00:00:05;;;;;;;1.85;0.90;;;;;;;11.05;74.70;100211.44;5117191;28;20031;-43
2022/04/05 00:02:31;;;;;;;1.80;0.90;;;;;;;11.07;74.84;100214.75;5099124;28;20039;-43
2022/04/05 00:04:56;;;;;;;1.20;0.82;;;;;;;11.03;74.76;100214.31;5116893;28;20055;-44
2022/04/05 00:07:23;;;;;;;0.95;0.60;;;;;;;10.99;74.40;100206.84;5116697;28;20031;-43
2022/04/05 00:09:49;;;;;;;1.33;0.57;;;;;;;11.03;74.47;100217.00;5116678;28;20027;-43
2022/04/05 00:12:15;;;;;;;1.73;0.70;;;;;;;11.01;74.70;100224.44;5098430;28;20035;-44
2022/04/05 00:14:41;;;;;;;1.10;0.70;;;;;;;10.98;74.29;100213.28;5098426;28;20328;-42
2022/04/05 00:17:07;;;;;;;1.83;0.77;;;;;;;10.89;74.46;100209.94;5117029;28;20034;-43
2022/04/05 00:19:33;;;;;;;1.30;0.85;;;;;;;10.94;74.72;100218.22;5098663;28;20027;-42
2022/04/05 00:21:58;;;;;;;0.60;0.60;;;;;;;10.91;74.36;100212.41;5098616;28;20027;-43
2022/04/05 00:24:24;;;;;;;1.17;0.55;;;;;;;10.91;74.08;100220.47;5098504;28;20031;-43
2022/04/05 00:26:50;;;;;;;0.70;0.57;;;;;;;10.89;74.07;100219.84;5116352;28;20358;-43
2022/04/05 00:29:16;;;;;;;0.82;0.80;;;;;;;10.88;74.09;100212.81;5116820;28;20118;-45
2022/04/05 00:31:41;;;;;;;1.13;0.70;;;;;;;10.85;74.25;100225.63;5116711;28;20023;-46
2022/04/05 00:34:08;;;;;;;1.38;0.77;;;;;;;10.86;74.12;100218.38;5098185;28;20642;-43
2022/04/05 00:36:34;;;;;;;0.80;0.80;;;;;;;10.85;74.27;100222.13;5116757;28;20042;-44
2022/04/05 00:38:59;;;;;;;1.35;0.70;;;;;;;10.86;73.96;100218.38;5098760;28;20102;-43
2022/04/05 00:41:26;;;;;;;1.13;0.70;;;;;;;10.79;74.09;100204.94;5081721;28;20418;-45
2022/04/05 00:43:52;;;;;;;1.15;0.70;;;;;;;10.77;73.84;100200.78;5116538;28;20023;-42
2022/04/05 00:46:17;;;;;;;2.63;0.98;;;;;;;10.85;74.18;100224.78;5116737;28;20178;-45
2022/04/05 00:48:49;;;;;;;1.17;0.80;;;;;;;10.84;74.39;100228.50;5098234;28;20193;-44
2022/04/05 00:51:16;;;;;;;2.00;0.80;;;;;;;10.79;73.91;100223.75;5098384;28;20027;-43
2022/04/05 00:53:46;;;;;;;0.70;0.70;;;;;;;10.84;73.85;100228.50;5116698;28;20050;-43
2022/04/05 00:56:15;;;;;;;1.63;0.70;;;;;;;10.84;74.02;100223.13;5116114;28;20432;-45
2022/04/05 00:58:46;;;;;;;1.13;0.60;;;;;;;10.80;74.13;100219.19;5097908;28;20396;-45
2022/04/05 01:01:16;;;;;;;1.13;0.65;;;;;;;10.81;73.96;100227.06;5098011;28;20032;-43
2022/04/05 01:03:48;;;;;;;2.83;0.80;;;;;;;10.79;74.16;100233.63;5115340;28;20030;-44
2022/04/05 01:06:32;;;;;;;1.35;0.70;;;;;;;10.71;73.86;100217.72;5116166;28;20035;-46
2022/04/05 01:08:58;;;;;;;0.98;0.75;;;;;;;10.78;73.91;100227.44;5116519;28;20043;-46
2022/04/05 01:11:24;;;;;;;1.17;0.80;;;;;;;10.76;73.85;100217.94;5116245;28;20044;-43
2022/04/05 01:13:52;;;;;;;0.73;0.70;;;;;;;10.73;73.91;100218.34;5115485;28;20027;-45
2022/04/05 01:16:19;;;;;;;1.23;0.68;;;;;;;10.79;73.74;100229.13;5115903;28;20110;-47
2022/04/05 01:18:45;;;;;;;0.73;0.70;;;;;;;10.73;73.54;100213.78;5116164;28;20040;-43
2022/04/05 01:21:11;;;;;;;0.88;0.60;;;;;;;10.82;73.52;100238.63;5116052;28;20061;-43
2022/04/05 01:23:37;;;;;;;0.60;0.60;;;;;;;10.82;73.61;100227.88;5097794;28;20466;-43
2022/04/05 01:26:03;;;;;;;1.65;0.50;;;;;;;10.78;73.56;100205.97;5097366;28;20028;-43
2022/04/05 01:28:29;;;;;;;2.10;0.80;;;;;;;10.79;74.05;100220.22;5115606;28;20035;-44
2022/04/05 01:30:54;;;;;;;2.47;0.65;;;;;;;10.80;73.50;100219.19;5115527;28;20028;-44
2022/04/05 01:33:21;;;;;;;2.20;0.80;;;;;;;10.74;73.69;100203.88;5115585;28;20027;-42
2022/04/05 01:35:47;;;;;;;1.05;0.60;;;;;;;10.77;73.83;100209.69;5115843;28;20102;-43
2022/04/05 01:38:13;;;;;;;2.20;0.60;;;;;;;10.72;73.74;100205.97;5115319;28;20070;-42
2022/04/05 01:40:39;;;;;;;0.98;0.75;;;;;;;10.73;73.96;100202.22;5096960;28;20035;-42
2022/04/05 01:43:05;;;;;;;0.73;0.60;;;;;;;10.77;73.83;100207.00;5096998;28;20027;-44
2022/04/05 01:45:31;;;;;;;3.60;0.73;;;;;;;10.75;74.00;100205.53;5097022;28;20055;-42
2022/04/05 01:47:57;;;;;;;1.20;0.95;;;;;;;10.69;74.19;100204.47;5080172;28;20031;-44
2022/04/05 01:50:23;;;;;;;1.55;0.80;;;;;;;10.75;74.18;100200.97;5115429;28;20039;-46
2022/04/05 01:52:49;;;;;;;1.25;0.80;;;;;;;10.74;73.83;100207.41;5115601;28;20043;-44
2022/04/05 01:55:15;;;;;;;1.48;0.90;;;;;;;10.71;74.06;100205.09;5115587;28;20059;-43
2022/04/05 01:57:41;;;;;;;0.68;0.60;;;;;;;10.69;73.80;100195.59;5115895;28;20111;-44
2022/04/05 02:00:14;;;;;;;2.28;0.80;;;;;;;10.69;74.22;100201.78;5115588;28;20024;-43
2022/04/05 02:02:41;;;;;;;2.65;0.88;;;;;;;10.59;74.51;100188.75;5115911;28;20092;-56
2022/04/05 02:05:07;;;;;;;1.42;0.82;;;;;;;10.60;74.39;100198.44;5115708;28;20375;-44
2022/04/05 02:07:33;;;;;;;1.92;1.05;;;;;;;10.64;74.60;100207.78;5097512;28;20114;-42
2022/04/05 02:09:59;;;;;;;2.28;0.80;;;;;;;10.65;74.61;100203.22;5097575;28;20540;-45
2022/04/05 02:12:25;;;;;;;1.10;0.77;;;;;;;10.62;74.30;100201.78;5115687;28;20522;-46
2022/04/05 02:14:50;;;;;;;3.15;1.05;;;;;;;10.57;74.67;100198.88;5115090;28;20106;-43
2022/04/05 02:17:16;;;;;;;1.80;0.75;;;;;;;10.60;74.72;100203.00;5115600;28;20076;-42
2022/04/05 02:19:43;;;;;;;2.33;1.00;;;;;;;10.58;74.82;100197.81;5115043;28;20019;-43
2022/04/05 02:22:09;;;;;;;0.60;0.60;;;;;;;10.56;74.89;100199.06;5114905;28;20080;-47
2022/04/05 02:24:35;;;;;;;0.77;0.75;;;;;;;10.59;74.72;100202.19;5114905;28;20031;-44
2022/04/05 02:27:02;;;;;;;0.93;0.90;;;;;;;10.59;74.58;100194.13;5115476;28;20038;-43
2022/04/05 02:29:28;;;;;;;1.88;0.70;;;;;;;10.55;74.87;100194.69;5115406;28;20067;-44
2022/04/05 02:31:53;;;;;;;1.80;0.90;;;;;;;10.58;74.56;100199.69;5080370;28;20023;-44
2022/04/05 02:34:19;;;;;;;0.70;0.70;;;;;;;10.58;74.84;100197.81;5115754;28;20035;-44
2022/04/05 02:36:45;;;;;;;2.55;0.90;;;;;;;10.57;74.69;100192.69;5115601;28;20031;-44
2022/04/05 02:39:12;;;;;;;1.08;0.75;;;;;;;10.47;74.92;100176.91;5096882;28;20430;-43
2022/04/05 02:41:37;;;;;;;1.77;0.88;;;;;;;10.55;75.06;100195.56;5096433;28;20035;-41
2022/04/05 02:44:04;;;;;;;1.85;1.02;;;;;;;10.48;74.86;100177.75;5115245;28;20081;-42
2022/04/05 02:46:30;;;;;;;2.05;1.20;;;;;;;10.56;74.77;100202.56;5117841;28;20375;-43
2022/04/05 02:48:56;;;;;;;1.40;0.80;;;;;;;10.54;74.75;100199.25;5115926;28;20088;-42
2022/04/05 02:51:23;;;;;;;0.98;0.85;;;;;;;10.53;74.66;100197.63;5096232;28;20095;-42
2022/04/05 02:53:49;;;;;;;2.38;1.10;;;;;;;10.53;74.80;100197.63;5114296;28;20055;-43
2022/04/05 02:56:15;;;;;;;1.00;0.90;;;;;;;10.48;74.91;100189.31;5096781;28;20074;-42
2022/04/05 02:58:41;;;;;;;1.38;1.20;;;;;;;10.51;74.74;100194.31;5114489;28;20059;-43
2022/04/05 03:01:07;;;;;;;1.10;0.85;;;;;;;10.46;74.66;100178.78;5115252;28;20080;-45
2022/04/05 03:03:33;;;;;;;1.60;1.00;;;;;;;10.47;75.22;100182.28;5114749;28;20024;-43
2022/04/05 03:06:00;;;;;;;2.40;0.90;;;;;;;10.49;74.99;100188.28;5096115;28;20028;-43
2022/04/05 03:08:26;;;;;;;2.08;0.90;;;;;;;10.46;74.66;100184.16;5096175;28;20032;-42
2022/04/05 03:10:53;;;;;;;1.85;1.00;;;;;;;10.46;75.16;100183.34;5114304;28;20049;-42
2022/04/05 03:13:19;;;;;;;2.28;1.00;;;;;;;10.46;74.79;100186.84;5114285;28;20050;-42
2022/04/05 03:15:45;;;;;;;2.40;1.10;;;;;;;10.44;74.95;100183.53;5114526;28;20024;-42
2022/04/05 03:18:11;;;;;;;1.13;0.93;;;;;;;10.40;74.87;100178.75;5114427;28;20375;-42
2022/04/05 03:20:37;;;;;;;0.95;0.82;;;;;;;10.40;74.78;100168.84;5096032;28;20027;-42
2022/04/05 03:23:04;;;;;;;2.50;0.98;;;;;;;10.45;75.21;100179.78;5114097;28;20024;-42
2022/04/05 03:25:30;;;;;;;1.15;1.05;;;;;;;10.44;74.83;100172.78;5114519;28;20031;-42
2022/04/05 03:28:01;;;;;;;2.90;1.17;;;;;;;10.42;74.97;100176.72;5100367;28;20075;-43
2022/04/05 03:30:28;;;;;;;2.88;1.00;;;;;;;10.43;75.19;100179.16;5101162;28;20031;-44
2022/04/05 03:32:54;;;;;;;1.75;0.95;;;;;;;10.38;75.14;100168.22;5099992;28;20024;-45
2022/04/05 03:35:20;;;;;;;2.92;1.33;;;;;;;10.41;75.16;100172.34;5118287;28;20456;-45
2022/04/05 03:37:46;;;;;;;1.17;1.02;;;;;;;10.42;75.40;100177.53;5100238;28;20042;-43
2022/04/05 03:40:12;;;;;;;1.52;1.35;;;;;;;10.39;75.22;100177.91;5118624;28;20031;-42
2022/04/05 03:42:38;;;;;;;1.40;0.90;;;;;;;10.40;75.29;100171.53;5118243;28;20088;-45
2022/04/05 03:45:04;;;;;;;1.63;1.30;;;;;;;10.40;75.36;100178.75;5100615;28;20368;-43
2022/04/05 03:47:31;;;;;;;1.08;0.95;;;;;;;10.40;75.35;100176.06;5083081;28;20441;-45
2022/04/05 03:49:57;;;;;;;1.25;1.15;;;;;;;10.39;75.17;100169.88;5118050;28;20077;-42
2022/04/05 03:52:23;;;;;;;1.05;1.05;;;;;;;10.32;75.48;100160.13;5100202;28;20027;-44
2022/04/05 03:54:48;;;;;;;1.35;0.90;;;;;;;10.32;75.32;100162.81;5118059;28;20054;-42
2022/04/05 03:57:15;;;;;;;1.25;1.13;;;;;;;10.37;75.23;100171.94;5099701;28;20027;-44
2022/04/05 03:59:40;;;;;;;0.80;0.80;;;;;;;10.26;75.23;100151.00;5117331;28;20028;-46
2022/04/05 04:02:06;;;;;;;1.45;1.35;;;;;;;10.38;75.51;100170.06;5118191;28;20027;-43
2022/04/05 04:04:32;;;;;;;0.88;0.88;;;;;;;10.37;75.37;100173.78;5098991;28;20043;-43
2022/04/05 04:06:58;;;;;;;1.23;1.00;;;;;;;10.37;75.42;100165.75;5117846;28;20114;-43
2022/04/05 04:09:23;;;;;;;1.70;1.10;;;;;;;10.35;75.32;100162.44;5117967;28;20110;-44
2022/04/05 04:11:49;;;;;;;1.88;0.90;;;;;;;10.35;75.63;100163.25;5117266;28;20065;-42
2022/04/05 04:14:16;;;;;;;1.15;1.00;;;;;;;10.35;75.92;100165.94;5117461;28;20452;-45
2022/04/05 04:16:42;;;;;;;1.50;1.05;;;;;;;10.35;75.40;100168.63;5099183;28;20036;-43
2022/04/05 04:19:08;;;;;;;0.88;0.75;;;;;;;10.29;75.24;100155.97;5117092;28;20047;-45
2022/04/05 04:21:34;;;;;;;1.05;0.73;;;;;;;10.34;75.36;100168.81;5098994;28;20077;-45
2022/04/05 04:24:00;;;;;;;2.55;0.80;;;;;;;10.33;75.15;100156.44;5098852;28;20023;-43
2022/04/05 04:26:26;;;;;;;1.55;0.70;;;;;;;10.32;75.54;100166.31;5117297;28;20110;-47
2022/04/05 04:28:57;;;;;;;1.33;0.85;;;;;;;10.26;75.28;100162.53;5116955;28;20039;-45
2022/04/05 04:31:23;;;;;;;1.70;1.05;;;;;;;10.34;75.49;100166.13;5099217;28;20371;-44
2022/04/05 04:33:49;;;;;;;4.13;0.93;;;;;;;10.31;75.53;100162.00;5098854;28;20024;-43
2022/04/05 04:36:15;;;;;;;0.88;0.63;;;;;;;10.29;75.38;100164.03;5098485;28;20460;-44
2022/04/05 04:38:41;;;;;;;1.75;0.90;;;;;;;10.27;75.64;100156.16;5116546;28;20080;-44
2022/04/05 04:41:07;;;;;;;0.75;0.63;;;;;;;10.29;75.21;100161.34;5117289;28;20028;-44
2022/04/05 04:43:33;;;;;;;0.60;0.55;;;;;;;10.26;75.09;100153.69;5117370;28;20084;-43
2022/04/05 04:45:59;;;;;;;1.90;0.80;;;;;;;10.26;75.22;100164.41;5116522;28;20059;-44
2022/04/05 04:48:24;;;;;;;1.80;0.70;;;;;;;10.17;75.45;100144.13;5098285;28;20039;-44
2022/04/05 04:50:50;;;;;;;1.15;0.70;;;;;;;10.28;75.26;100162.34;5097712;28;20030;-42
2022/04/05 04:53:17;;;;;;;0.70;0.60;;;;;;;10.28;74.86;100168.53;5116381;28;20066;-42
2022/04/05 04:55:43;;;;;;;0.55;0.55;;;;;;;10.28;75.04;100170.41;5097737;28;20023;-42
2022/04/05 04:58:09;;;;;;;1.20;0.57;;;;;;;10.21;75.14;100156.94;5115630;28;20471;-43
2022/04/05 05:00:35;;;;;;;1.25;0.90;;;;;;;10.26;75.42;100164.41;5097731;28;20124;-45
2022/04/05 05:03:00;;;;;;;4.35;0.73;;;;;;;10.23;74.99;100165.66;5081105;28;20051;-44
2022/04/05 05:05:26;;;;;;;1.15;0.68;;;;;;;10.24;75.15;100161.09;5116090;28;20046;-44
2022/04/05 05:07:52;;;;;;;2.13;0.63;;;;;;;10.23;75.36;100170.16;5116416;28;20035;-43
2022/04/05 05:10:20;;;;;;;1.83;0.60;;;;;;;10.24;75.09;100169.16;5115937;28;20464;-43
2022/04/05 05:12:47;;;;;;;0.73;0.43;;;;;;;10.19;74.96;100166.22;5116140;28;20024;-43
2022/04/05 05:15:16;;;;;;;0.95;0.47;;;;;;;10.16;75.00;100163.94;5115464;28;20030;-45
2022/04/05 05:17:43;;;;;;;0.50;0.45;;;;;;;10.24;75.01;100174.50;5115482;28;20202;-43
2022/04/05 05:20:10;;;;;;;0.75;0.47;;;;;;;10.24;75.23;100169.97;5115056;28;20114;-43
2022/04/05 05:22:37;;;;;;;0.60;0.60;;;;;;;9.91;74.83;100116.13;5081229;28;20072;-43
2022/04/05 05:25:03;;;;;;;1.95;0.60;;;;;;;10.17;74.82;100161.06;5115305;28;20034;-43
2022/04/05 05:27:29;;;;;;;0.68;0.40;;;;;;;10.21;75.21;100172.22;5097030;28;20045;-44
2022/04/05 05:29:55;;;;;;;1.25;0.57;;;;;;;9.94;75.02;100128.34;5115432;28;20494;-45
2022/04/05 05:32:21;;;;;;;0.80;0.30;;;;;;;10.16;75.00;100153.19;5115819;28;20031;-42
2022/04/05 05:34:47;;;;;;;1.15;0.60;;;;;;;10.22;75.09;100165.84;5097191;28;20023;-43
2022/04/05 05:37:13;;;;;;;0.60;0.60;;;;;;;10.21;75.12;100161.47;5116027;28;20463;-43
2022/04/05 05:39:40;;;;;;;1.10;0.75;;;;;;;10.19;75.24;100161.69;5115811;28;20360;-42
2022/04/05 05:42:06;;;;;;;0.55;0.55;;;;;;;10.20;74.72;100168.72;5115587;28;20189;-42
2022/04/05 05:44:33;;;;;;;0.63;0.50;;;;;;;10.21;74.71;100170.34;5115474;28;20028;-47
2022/04/05 05:47:02;;;;;;;0.70;0.38;;;;;;;10.16;74.45;100163.94;5115267;28;20027;-41
2022/04/05 05:49:28;;;;;;;2.17;0.52;;;;;;;10.20;74.91;100174.09;5114749;28;20465;-44
2022/04/05 05:51:54;;;;;;;1.83;0.50;;;;;;;10.07;74.81;100149.88;5114940;28;20030;-45
2022/04/05 05:54:19;;;;;;;0.68;0.45;;;;;;;10.20;74.71;100170.56;5115215;28;20019;-47
2022/04/05 05:56:45;;;;;;;0.93;0.68;;;;;;;10.20;74.92;100160.66;5114702;28;20036;-47
2022/04/05 05:59:11;;;;;;;1.45;0.50;;;;;;;10.16;74.58;100158.56;5114538;28;20399;-45
2022/04/05 06:01:38;;;;;;;1.15;0.57;;;;;;;10.20;74.37;100167.91;5096326;28;20525;-44
2022/04/05 06:04:04;;;;;;;3.28;0.30;;;;;;;10.23;74.42;100165.66;5096383;28;20125;-48
2022/04/05 06:06:31;;;;;;;3.13;0.70;;;;;;;10.20;74.40;100162.53;5114428;28;20071;-47
2022/04/05 06:08:57;;;;;;;2.95;0.60;;;;;;;10.25;74.39;100168.09;5096726;28;20028;-44
2022/04/05 06:11:23;;;;;;;0.63;0.50;;;;;;;10.20;74.13;100159.84;5097321;28;20037;-45
2022/04/05 06:13:50;;;;;;;6.93;3.47;;;;;;;10.24;74.39;100167.28;5114827;28;20106;-44
2022/04/05 06:16:18;;;;;;;4.57;2.47;;;;;;;10.23;74.24;100172.84;5096663;28;20035;-48
2022/04/05 06:18:46;;;;;;;1.23;0.65;;;;;;;10.22;74.41;100177.38;5114161;28;20085;-45
2022/04/05 06:21:12;;;;;;;2.30;1.08;;;;;;;10.14;74.76;100172.19;5096803;28;20043;-44
2022/04/05 06:23:39;;;;;;;2.03;1.20;;;;;;;10.22;74.33;100180.06;5113976;28;20491;-43
2022/04/05 06:26:05;;;;;;;1.02;0.70;;;;;;;10.24;74.84;100187.94;5114065;28;20071;-43
2022/04/05 06:28:31;;;;;;;1.08;0.98;;;;;;;10.25;74.82;100187.75;5114255;28;20063;-43
2022/04/05 06:30:57;;;;;;;1.60;0.85;;;;;;;10.26;74.54;100192.06;5114021;28;20528;-45
2022/04/05 06:33:23;;;;;;;3.13;0.80;;;;;;;10.24;74.48;100180.69;5095880;28;20024;-47
2022/04/05 06:35:52;;;;;;;1.40;0.40;;;;;;;10.24;74.87;100185.25;5113986;28;20046;-44
2022/04/05 06:38:18;;;;;;;1.50;0.73;;;;;;;10.23;75.13;100187.13;5114319;28;20032;-46
2022/04/05 06:40:44;;;;;;;7.45;4.20;;;;;;;10.24;74.78;100182.56;5114228;28;20355;-42
2022/04/05 06:43:11;;;;;;;6.50;3.25;;;;;;;10.22;75.26;100180.06;5114446;28;20039;-44
2022/04/05 06:45:37;;;;;;;2.63;1.55;;;;;;;10.20;74.81;100179.44;5114034;28;20103;-41
2022/04/05 06:48:06;;;;;;;2.72;0.98;;;;;;;10.26;74.80;100175.97;5114378;28;20074;-43
2022/04/05 06:50:33;;;;;;;1.70;0.50;;;;;;;10.33;75.14;100191.31;5095462;28;20028;-42
2022/04/05 06:53:00;;;;;;;0.93;0.50;;;;;;;10.32;74.55;100178.91;5114113;28;20039;-42
2022/04/05 06:55:27;;;;;;;0.95;0.47;;;;;;;10.32;74.44;100190.47;5095582;28;20053;-42
2022/04/05 06:57:53;;;;;;;1.90;0.50;;;;;;;10.39;74.69;100190.53;5062164;28;20108;-43
2022/04/05 07:00:22;;;;;;;1.60;0.40;;;;;;;10.40;74.42;100198.38;5113630;28;20039;-42
2022/04/05 07:02:48;;;;;;;2.33;0.57;;;;;;;10.43;74.36;100197.97;5113423;28;20038;-42
2022/04/05 07:05:14;;;;;;;1.00;0.43;;;;;;;10.46;74.01;100196.75;5095529;28;20044;-43
2022/04/05 07:07:41;;;;;;;1.27;0.50;;;;;;;10.45;73.91;100200.44;5113767;28;20031;-42
2022/04/05 07:10:09;;;;;;;1.58;0.57;;;;;;;10.48;73.81;100183.13;5114160;28;20028;-42
2022/04/05 07:12:35;;;;;;;0.63;0.40;;;;;;;10.46;73.69;100180.66;5113726;28;20332;-42
2022/04/05 07:15:01;;;;;;;0.82;0.47;;;;;;;10.53;73.05;100181.50;5095816;28;20032;-42
2022/04/05 07:17:27;;;;;;;1.73;0.60;;;;;;;10.58;73.12;100168.28;5114098;28;20397;-46
2022/04/05 07:19:53;;;;;;;1.38;0.50;;;;;;;10.57;73.16;100169.31;5113603;28;20115;-44
2022/04/05 07:22:19;;;;;;;1.08;0.50;;;;;;;10.64;73.23;100174.69;5113699;28;20048;-45
2022/04/05 07:24:46;;;;;;;1.15;0.50;;;;;;;10.58;72.68;100157.53;5113485;28;20042;-46
2022/04/05 07:27:13;;;;;;;2.63;0.50;;;;;;;10.69;73.08;100169.56;5115663;28;20048;-42
2022/04/05 07:29:39;;;;;;;2.88;0.45;;;;;;;10.76;72.05;100169.59;5115262;28;20436;-43
2022/04/05 07:32:06;;;;;;;2.60;0.55;;;;;;;10.98;71.87;100173.78;5113846;28;20035;-43
2022/04/05 07:34:31;;;;;;;1.20;0.50;;;;;;;10.97;71.76;100174.81;5113542;28;20023;-43
2022/04/05 07:36:57;;;;;;;1.52;0.50;;;;;;;11.06;70.98;100175.44;5113887;28;20442;-43
2022/04/05 07:39:23;;;;;;;3.92;0.40;;;;;;;11.04;71.26;100177.50;5095188;28;20035;-42
2022/04/05 07:41:50;;;;;;;1.08;0.50;;;;;;;11.00;71.19;100171.72;5095274;28;20024;-42
2022/04/05 07:44:16;;;;;;;1.17;0.60;;;;;;;11.01;70.59;100162.63;5113140;28;20386;-45
2022/04/05 07:46:42;;;;;;;0.70;0.35;;;;;;;11.10;70.83;100170.50;5114768;28;20099;-45
2022/04/05 07:49:07;;;;;;;2.20;0.47;;;;;;;10.90;70.79;100143.59;5114465;28;20031;-45
2022/04/05 07:51:33;;;;;;;1.55;0.52;;;;;;;11.16;70.37;100185.78;5095609;28;20040;-47
2022/04/05 07:53:59;;;;;;;2.15;0.32;;;;;;;11.19;70.28;100183.53;5113345;28;20054;-44
2022/04/05 07:56:27;;;;;;;3.40;0.80;;;;;;;11.20;70.35;100184.38;5113195;28;20106;-44
2022/04/05 07:58:53;;;;;;;0.95;0.50;;;;;;;11.37;69.95;100190.19;5095426;28;20051;-43
2022/04/05 08:01:19;;;;;;;0.73;0.55;;;;;;;11.43;69.33;100182.09;5113348;28;20478;-46
2022/04/05 08:03:45;;;;;;;0.60;0.50;;;;;;;11.54;69.06;100180.66;5094835;28;20403;-46
2022/04/05 08:06:10;;;;;;;1.65;0.60;;;;;;;11.54;68.82;100177.16;5113227;28;20063;-44
2022/04/05 08:08:36;;;;;;;2.13;0.70;;;;;;;11.60;69.10;100187.91;5112871;28;20031;-45
2022/04/05 08:11:02;;;;;;;1.10;0.47;;;;;;;11.36;69.09;100172.38;5113546;28;20030;-46
2022/04/05 08:13:28;;;;;;;2.00;0.60;;;;;;;11.43;68.37;100183.97;5116470;28;20410;-45
2022/04/05 08:15:55;;;;;;;1.33;0.45;;;;;;;11.43;68.10;100183.97;5116789;28;20028;-46
2022/04/05 08:18:21;;;;;;;2.25;0.57;;;;;;;11.41;67.77;100183.34;5116964;28;20603;-45
2022/04/05 08:20:48;;;;;;;2.55;0.60;;;;;;;11.38;67.97;100181.06;5116479;28;20039;-44
2022/04/05 08:23:14;;;;;;;1.35;0.70;;;;;;;11.34;67.38;100150.25;5082044;28;20072;-45
2022/04/05 08:25:40;;;;;;;1.77;0.52;;;;;;;11.49;67.42;100179.63;5116270;28;20138;-45
2022/04/05 08:28:06;;;;;;;3.28;0.73;;;;;;;11.47;66.97;100176.31;5081031;28;20112;-47
2022/04/05 08:30:32;;;;;;;3.20;0.80;;;;;;;11.52;66.91;100180.03;5116225;28;20023;-47
2022/04/05 08:32:58;;;;;;;2.05;0.90;;;;;;;11.68;66.70;100173.44;5116151;28;20047;-49
2022/04/05 08:35:25;;;;;;;3.85;0.80;;;;;;;11.78;65.73;100179.19;5098007;28;20116;-48
2022/04/05 08:37:53;;;;;;;3.75;0.90;;;;;;;11.97;64.63;100171.34;5097931;28;20063;-45
2022/04/05 08:40:23;;;;;;;2.63;0.80;;;;;;;11.99;64.05;100161.19;5116406;28;20115;-48
2022/04/05 08:42:51;;;;;;;2.47;0.70;;;;;;;12.07;64.53;100162.81;5116938;28;20036;-49
2022/04/05 08:45:19;;;;;;;4.05;0.70;;;;;;;12.12;64.53;100155.78;5118506;28;20118;-45
2022/04/05 08:47:48;;;;;;;2.53;0.70;;;;;;;12.10;64.32;100159.72;5117673;28;20024;-43
2022/04/05 08:50:17;;;;;;;5.28;0.90;;;;;;;12.16;64.31;100157.00;5118743;28;20529;-42
2022/04/05 08:52:44;;;;;;;6.22;1.15;;;;;;;12.03;63.52;100157.03;5099805;28;20391;-42
2022/04/05 08:55:11;;;;;;;4.22;1.23;;;;;;;11.82;63.29;100148.16;5098476;28;20023;-42
2022/04/05 08:57:37;;;;;;;2.95;1.00;;;;;;;11.88;63.32;100142.97;5116929;28;20085;-42
2022/04/05 09:00:06;;;;;;;2.00;1.00;;;;;;;12.13;62.49;100152.06;5117016;28;20440;-43
2022/04/05 09:02:32;;;;;;;3.15;0.73;;;;;;;12.38;62.01;100152.16;5116183;28;20110;-41
2022/04/05 09:04:58;;;;;;;5.63;1.30;;;;;;;12.45;62.99;100160.22;5115653;28;20126;-44
2022/04/05 09:07:28;;;;;;;3.03;0.85;;;;;;;12.53;62.54;100159.97;5116287;28;20081;-41
2022/04/05 09:10:13;;;;;;;2.70;0.80;;;;;;;12.52;61.17;100162.91;5097557;28;20034;-46
2022/04/05 09:12:41;;;;;;;5.53;1.30;;;;;;;12.34;61.78;100172.47;5098250;28;20055;-42
2022/04/05 09:15:10;;;;;;;5.18;0.95;;;;;;;12.62;61.47;100149.78;5115683;28;20063;-44
2022/04/05 09:17:41;;;;;;;8.88;1.58;;;;;;;13.52;58.66;100149.63;5081152;28;20028;-42
2022/04/05 09:20:07;;;;;;;9.48;1.38;;;;;;;13.80;56.92;100142.94;5115410;28;20086;-44
2022/04/05 09:22:34;;;;;;;5.28;1.38;;;;;;;13.74;56.99;100133.88;5115545;28;20028;-42
2022/04/05 09:25:20;;;;;;;4.95;1.30;;;;;;;13.29;58.51;100133.19;5096915;28;20039;-42
2022/04/05 09:27:49;;;;;;;5.63;1.50;;;;;;;13.01;59.70;100142.50;5114971;28;20032;-42
2022/04/05 09:30:20;;;;;;;9.13;1.83;;;;;;;12.88;59.32;100143.41;5097111;28;20100;-42
2022/04/05 09:32:48;;;;;;;6.75;1.48;;;;;;;13.11;58.51;100132.09;5115062;28;20028;-43
2022/04/05 09:35:18;;;;;;;6.30;1.20;;;;;;;13.33;57.74;100153.31;5114922;28;20032;-43
2022/04/05 09:37:45;;;;;;;9.07;1.48;;;;;;;13.70;56.54;100146.13;5080296;28;20065;-44
2022/04/05 09:40:22;;;;;;;8.25;1.73;;;;;;;14.23;55.30;100142.06;5097028;28;20036;-43
2022/04/05 09:43:13;;;;;;;7.30;1.92;;;;;;;14.50;55.10;100150.69;5114824;28;20438;-43
2022/04/05 09:45:53;;;;;;;13.05;1.40;;;;;;;14.57;54.66;100131.69;5083330;28;20027;-43
2022/04/05 09:48:22;;;;;;;9.75;1.60;;;;;;;14.48;52.88;100123.03;5096371;28;20038;-42
2022/04/05 09:51:10;;;;;;;10.32;1.63;;;;;;;14.97;52.01;100141.13;5114742;28;20028;-44
2022/04/05 09:53:44;;;;;;;8.40;1.55;;;;;;;14.88;53.58;100143.34;5082952;28;20475;-43
2022/04/05 09:56:13;;;;;;;7.25;1.50;;;;;;;14.76;53.38;100134.34;5114488;28;20065;-44
2022/04/05 09:58:57;;;;;;;6.53;1.30;;;;;;;14.77;53.48;100152.25;5114557;28;20031;-44
2022/04/05 10:01:26;;;;;;;5.03;1.27;;;;;;;14.45;54.11;100144.28;5096089;28;20032;-43
2022/04/05 10:04:02;;;;;;;9.20;2.00;;;;;;;14.05;53.48;100144.75;5114352;28;20044;-42
2022/04/05 10:06:30;;;;;;;12.93;1.90;;;;;;;13.74;54.71;100151.91;5080201;28;20028;-42
2022/04/05 10:08:57;;;;;;;9.88;1.85;;;;;;;13.80;56.00;100155.59;5096013;28;20035;-45
2022/04/05 10:11:25;;;;;;;7.63;1.65;;;;;;;13.78;56.11;100155.84;5095967;28;20038;-43
2022/04/05 10:13:52;;;;;;;6.90;1.52;;;;;;;13.38;56.01;100140.00;5114136;28;20038;-47
2022/04/05 10:16:19;;;;;;;7.63;1.77;;;;;;;13.42;56.34;100156.56;5114221;28;20031;-42
2022/04/05 10:18:48;;;;;;;6.70;2.00;;;;;;;13.22;56.29;100160.19;5114105;28;20019;-45
2022/04/05 10:21:15;;;;;;;11.82;2.03;;;;;;;13.11;55.74;100161.75;5096352;28;20034;-43
2022/04/05 10:23:43;;;;;;;9.10;1.80;;;;;;;13.05;56.14;100146.41;5114488;28;20024;-42
2022/04/05 10:26:16;;;;;;;9.85;2.22;;;;;;;13.27;56.91;100151.47;5095897;28;20085;-42
2022/04/05 10:28:44;;;;;;;7.57;1.50;;;;;;;13.55;55.27;100153.75;5114326;28;20030;-42
2022/04/05 10:31:16;;;;;;;9.10;1.80;;;;;;;13.59;54.97;100140.66;5114018;28;20028;-43
2022/04/05 10:33:54;;;;;;;10.50;2.00;;;;;;;13.99;52.88;100143.78;5095930;28;20032;-49
2022/04/05 10:36:24;;;;;;;8.98;1.83;;;;;;;13.73;53.73;100144.88;5113523;28;20024;-42
2022/04/05 10:39:12;;;;;;;13.07;2.30;;;;;;;13.65;53.19;100134.34;5113908;28;20047;-43
2022/04/05 10:41:38;;;;;;;9.68;1.63;;;;;;;13.78;53.51;100133.41;5099546;28;20148;-42
2022/04/05 10:44:24;;;;;;;6.53;1.55;;;;;;;13.61;53.52;100133.97;5114515;28;20019;-42
2022/04/05 10:46:58;;;;;;;8.52;2.17;;;;;;;13.58;54.15;100150.63;5081817;28;20415;-45
2022/04/05 10:49:47;;;;;;;12.85;2.83;;;;;;;13.72;54.15;100135.97;5113911;28;20460;-47
2022/04/05 10:52:27;;;;;;;12.15;1.73;;;;;;;13.79;54.27;100130.47;5065404;28;20040;-42
2022/04/05 10:55:09;;;;;;;8.65;2.10;;;;;;;13.67;53.44;100148.44;5113629;28;20024;-44
2022/04/05 10:57:37;;;;;;;9.15;1.80;;;;;;;13.58;54.42;100139.81;5113742;28;20480;-42
2022/04/05 11:00:08;;;;;;;11.35;1.77;;;;;;;13.42;54.29;100133.09;5113731;28;20036;-42
2022/04/05 11:02:38;;;;;;;6.32;1.45;;;;;;;13.35;54.62;100126.94;5094992;28;20027;-43
2022/04/05 11:05:31;;;;;;;15.23;1.92;;;;;;;13.30;53.34;100126.75;5094992;28;20040;-45
2022/04/05 11:08:02;;;;;;;9.32;1.67;;;;;;;13.27;53.25;100122.63;5082081;28;20104;-41
2022/04/05 11:10:44;;;;;;;12.00;2.20;;;;;;;13.32;52.99;100119.31;5113185;28;20042;-42
2022/04/05 11:13:13;;;;;;;11.68;2.13;;;;;;;13.42;52.93;100118.81;5113484;28;20023;-44
2022/04/05 11:15:42;;;;;;;9.20;2.13;;;;;;;13.52;53.22;100124.50;5096090;28;20027;-41
2022/04/05 11:18:09;;;;;;;6.38;1.60;;;;;;;13.51;52.68;100118.28;5113607;28;20031;-43
2022/04/05 11:20:38;;;;;;;6.85;1.75;;;;;;;13.47;53.96;100138.66;5113501;28;20118;-42
2022/04/05 11:23:05;;;;;;;9.20;1.55;;;;;;;13.30;52.87;100121.38;5078024;28;20029;-42
2022/04/05 11:25:31;;;;;;;9.20;1.92;;;;;;;13.40;53.46;100131.69;5095138;28;20066;-45